createdAt,value
2023-02-26T00:01:19.902Z,98.38
2023-02-26T00:03:55.741Z,98.47
2023-02-26T00:06:24.631Z,98.27
2023-02-26T00:08:52.866Z,98.21
2023-02-26T00:11:22.262Z,98.28
2023-02-26T00:13:50.388Z,98.23
2023-02-26T00:16:21.131Z,97.82
2023-02-26T00:18:49.071Z,97.99
2023-02-26T00:21:18.053Z,97.77
2023-02-26T00:23:46.010Z,97.68
2023-02-26T00:26:13.981Z,97.75
2023-02-26T00:28:42.346Z,97.15
2023-02-26T00:31:11.273Z,97.03
2023-02-26T00:33:39.473Z,96.45
2023-02-26T00:36:18.794Z,97.08
2023-02-26T00:38:52.054Z,97.45
2023-02-26T00:41:20.082Z,96.91
2023-02-26T00:43:48.100Z,97.17
2023-02-26T00:46:22.077Z,96.27
2023-02-26T00:48:49.860Z,96.33
2023-02-26T00:51:24.038Z,95.66
2023-02-26T00:54:01.574Z,95.86
2023-02-26T00:56:29.993Z,95.76
2023-02-26T00:58:57.936Z,95.18
2023-02-26T01:01:25.749Z,95.19
2023-02-26T01:03:53.700Z,95.20
2023-02-26T01:06:22.702Z,95.60
2023-02-26T01:08:56.899Z,94.94
2023-02-26T01:11:25.068Z,95.46
2023-02-26T01:13:53.207Z,95.84
2023-02-26T01:16:25.490Z,95.60
2023-02-26T01:19:00.480Z,95.76
2023-02-26T01:21:31.168Z,95.91
2023-02-26T01:24:01.877Z,96.00
2023-02-26T01:26:29.850Z,95.88
2023-02-26T01:28:58.160Z,95.87
2023-02-26T01:31:42.158Z,95.94
2023-02-26T01:34:23.286Z,95.39
2023-02-26T01:37:14.488Z,95.18
2023-02-26T01:40:08.683Z,95.44
2023-02-26T01:42:38.092Z,94.94
2023-02-26T01:45:21.829Z,94.93
2023-02-26T01:47:54.332Z,94.79
2023-02-26T01:50:29.653Z,94.43
2023-02-26T01:52:58.910Z,93.06
2023-02-26T01:55:27.162Z,93.88
2023-02-26T01:57:58.002Z,93.60
2023-02-26T02:00:25.961Z,93.35
2023-02-26T02:02:54.920Z,93.67
2023-02-26T02:05:34.593Z,93.23
2023-02-26T02:08:02.577Z,93.36
2023-02-26T02:10:30.751Z,93.68
2023-02-26T02:13:05.482Z,92.99
2023-02-26T02:15:45.494Z,92.62
2023-02-26T02:18:19.309Z,93.16
2023-02-26T02:20:47.042Z,92.77
2023-02-26T02:23:31.122Z,93.48
2023-02-26T02:26:02.023Z,93.26
2023-02-26T02:28:45.794Z,93.38
2023-02-26T02:31:29.583Z,93.45
2023-02-26T02:34:03.157Z,92.99
2023-02-26T02:36:30.887Z,92.72
2023-02-26T02:39:02.254Z,90.89
2023-02-26T02:41:35.649Z,90.25
2023-02-26T02:44:06.111Z,90.05
2023-02-26T02:46:37.002Z,89.71
2023-02-26T02:49:07.855Z,90.01
2023-02-26T02:51:49.349Z,89.39
2023-02-26T02:54:27.603Z,88.84
2023-02-26T02:57:01.677Z,89.82
2023-02-26T02:59:46.474Z,90.02
2023-02-26T03:02:31.023Z,89.30
2023-02-26T03:04:59.033Z,89.51
2023-02-26T03:07:26.997Z,89.29
2023-02-26T03:09:55.121Z,90.22
2023-02-26T03:12:25.338Z,90.24
2023-02-26T03:14:53.390Z,89.20
2023-02-26T03:17:37.966Z,89.32
2023-02-26T03:20:06.611Z,89.85
2023-02-26T03:22:50.699Z,89.68
2023-02-26T03:25:35.162Z,89.54
2023-02-26T03:28:20.746Z,89.15
2023-02-26T03:31:05.140Z,89.09
2023-02-26T03:33:48.938Z,89.19
2023-02-26T03:36:20.004Z,88.89
2023-02-26T03:39:05.169Z,88.80
2023-02-26T03:41:49.299Z,89.58
2023-02-26T03:44:43.988Z,88.12
2023-02-26T03:47:13.810Z,87.70
2023-02-26T03:49:45.303Z,87.27
2023-02-26T03:52:14.154Z,88.55
2023-02-26T03:55:10.608Z,88.70
2023-02-26T03:57:52.426Z,88.19
2023-02-26T04:00:27.737Z,88.93
2023-02-26T04:03:01.332Z,89.16
2023-02-26T04:05:33.301Z,88.98
2023-02-26T04:08:01.378Z,88.43
2023-02-26T04:10:53.420Z,88.33
2023-02-26T04:13:21.908Z,88.50
2023-02-26T04:15:50.063Z,88.99
2023-02-26T04:18:17.942Z,89.07
2023-02-26T04:20:45.720Z,88.69
2023-02-26T04:23:13.511Z,89.18
2023-02-26T04:25:41.273Z,89.17
2023-02-26T04:28:09.799Z,88.37
2023-02-26T04:30:37.772Z,89.22
2023-02-26T04:33:06.532Z,88.74
2023-02-26T04:35:34.532Z,88.58
2023-02-26T04:38:02.297Z,88.76
2023-02-26T04:40:31.423Z,88.41
2023-02-26T04:42:59.176Z,88.08
2023-02-26T04:45:28.100Z,87.98
2023-02-26T04:47:55.857Z,87.90
2023-02-26T04:50:23.633Z,87.34
2023-02-26T04:52:53.110Z,86.84
2023-02-26T04:55:22.742Z,88.18
2023-02-26T04:57:50.526Z,87.79
2023-02-26T05:00:22.561Z,87.81
2023-02-26T05:02:50.314Z,87.47
2023-02-26T05:05:18.239Z,88.10
2023-02-26T05:07:46.328Z,88.06
2023-02-26T05:10:16.555Z,88.51
2023-02-26T05:12:44.306Z,88.46
2023-02-26T05:15:12.093Z,88.55
2023-02-26T05:17:39.949Z,88.75
2023-02-26T05:20:11.179Z,88.60
2023-02-26T05:22:39.824Z,88.48
2023-02-26T05:25:09.054Z,88.59
2023-02-26T05:27:36.827Z,89.11
2023-02-26T05:30:04.915Z,88.92
2023-02-26T05:32:34.193Z,88.75
2023-02-26T05:35:02.096Z,87.95
2023-02-26T05:37:30.101Z,87.51
2023-02-26T05:39:57.945Z,88.43
2023-02-26T05:42:25.908Z,88.59
2023-02-26T05:44:53.813Z,88.68
2023-02-26T05:47:21.523Z,88.79
2023-02-26T05:49:49.623Z,88.34
2023-02-26T05:52:17.396Z,88.66
2023-02-26T05:54:45.218Z,88.38
2023-02-26T05:57:13.054Z,88.92
2023-02-26T05:59:40.860Z,88.13
2023-02-26T06:02:09.218Z,88.56
2023-02-26T06:04:37.050Z,88.74
2023-02-26T06:07:04.983Z,88.68
2023-02-26T06:09:32.830Z,88.06
2023-02-26T06:12:00.582Z,87.81
2023-02-26T06:14:28.289Z,87.35
2023-02-26T06:16:56.014Z,88.32
2023-02-26T06:19:23.787Z,88.20
2023-02-26T06:21:51.568Z,88.38
2023-02-26T06:24:19.344Z,88.22
2023-02-26T06:26:47.024Z,88.25
2023-02-26T06:29:14.766Z,87.85
2023-02-26T06:31:42.617Z,87.88
2023-02-26T06:34:10.769Z,87.76
2023-02-26T06:36:38.747Z,87.39
2023-02-26T06:39:07.606Z,87.27
2023-02-26T06:41:35.390Z,87.41
2023-02-26T06:44:03.179Z,87.58
2023-02-26T06:46:31.240Z,87.49
2023-02-26T06:48:59.210Z,87.59
2023-02-26T06:51:26.944Z,87.73
2023-02-26T06:53:54.868Z,87.67
2023-02-26T06:56:24.352Z,86.93
2023-02-26T06:58:52.368Z,87.19
2023-02-26T07:01:20.133Z,87.80
2023-02-26T07:03:47.974Z,87.21
2023-02-26T07:06:37.983Z,87.17
2023-02-26T07:09:04.133Z,88.12
2023-02-26T07:11:31.974Z,87.95
2023-02-26T07:14:01.013Z,88.44
2023-02-26T07:16:29.140Z,88.11
2023-02-26T07:18:57.239Z,88.01
2023-02-26T07:21:25.204Z,88.15
2023-02-26T07:23:52.917Z,88.13
2023-02-26T07:26:20.742Z,86.68
2023-02-26T07:28:48.512Z,86.88
2023-02-26T07:31:16.586Z,86.49
2023-02-26T07:33:44.463Z,84.79
2023-02-26T07:36:12.214Z,85.34
2023-02-26T07:38:39.930Z,85.87
2023-02-26T07:41:07.635Z,84.60
2023-02-26T07:43:35.429Z,84.88
2023-02-26T07:46:03.811Z,84.57
2023-02-26T07:48:31.897Z,83.77
2023-02-26T07:50:59.828Z,84.36
2023-02-26T07:53:27.604Z,83.64
2023-02-26T07:55:55.374Z,84.07
2023-02-26T07:58:23.147Z,84.09
2023-02-26T08:00:52.625Z,84.27
2023-02-26T08:03:21.016Z,84.58
2023-02-26T08:05:48.692Z,84.31
2023-02-26T08:08:16.382Z,84.31
2023-02-26T08:10:44.088Z,84.03
2023-02-26T08:13:11.799Z,83.73
2023-02-26T08:15:41.646Z,84.02
2023-02-26T08:18:10.092Z,83.74
2023-02-26T08:20:38.075Z,83.22
2023-02-26T08:23:05.787Z,83.62
2023-02-26T08:25:33.715Z,84.18
2023-02-26T08:28:03.213Z,84.08
2023-02-26T08:30:31.258Z,83.07
2023-02-26T08:32:58.998Z,82.83
2023-02-26T08:35:26.748Z,83.08
2023-02-26T08:37:54.449Z,83.54
2023-02-26T08:40:22.273Z,83.91
2023-02-26T08:42:50.099Z,83.15
2023-02-26T08:45:19.122Z,83.39
2023-02-26T08:47:56.109Z,83.48
2023-02-26T08:50:25.361Z,83.72
2023-02-26T08:52:53.116Z,83.37
2023-02-26T08:55:21.208Z,82.47
2023-02-26T08:57:48.957Z,82.50
2023-02-26T09:00:18.471Z,83.35
2023-02-26T09:02:46.312Z,82.17
2023-02-26T09:05:15.045Z,82.26
2023-02-26T09:07:43.243Z,81.72
2023-02-26T09:10:11.901Z,81.25
2023-02-26T09:12:39.664Z,82.54
2023-02-26T09:15:08.350Z,81.49
2023-02-26T09:17:36.477Z,81.52
2023-02-26T09:20:04.574Z,81.06
2023-02-26T09:22:32.550Z,81.54
2023-02-26T09:25:00.476Z,81.23
2023-02-26T09:27:28.322Z,82.07
2023-02-26T09:29:56.255Z,82.43
2023-02-26T09:32:26.222Z,81.75
2023-02-26T09:34:54.286Z,81.17
2023-02-26T09:37:22.058Z,81.34
2023-02-26T09:39:49.735Z,81.89
2023-02-26T09:42:34.346Z,82.08
2023-02-26T09:45:03.088Z,81.27
2023-02-26T09:47:40.939Z,82.37
2023-02-26T09:50:28.929Z,81.71
2023-02-26T09:53:01.395Z,81.61
2023-02-26T09:55:45.283Z,81.22
2023-02-26T09:58:33.301Z,82.39
2023-02-26T10:01:17.105Z,81.43
2023-02-26T10:03:56.130Z,81.10
2023-02-26T10:06:32.361Z,80.87
2023-02-26T10:09:16.002Z,80.46
2023-02-26T10:12:06.887Z,80.62
2023-02-26T10:14:45.839Z,81.37
2023-02-26T10:17:29.787Z,81.28
2023-02-26T10:20:06.968Z,81.91
2023-02-26T10:22:38.009Z,79.64
2023-02-26T10:25:21.761Z,79.03
2023-02-26T10:27:55.742Z,80.47
2023-02-26T10:30:23.556Z,81.21
2023-02-26T10:32:54.485Z,81.20
2023-02-26T10:35:26.027Z,81.31
2023-02-26T10:37:57.355Z,80.39
2023-02-26T10:40:28.424Z,79.99
2023-02-26T10:42:58.907Z,81.22
2023-02-26T10:45:42.872Z,81.45
2023-02-26T10:48:24.812Z,80.05
2023-02-26T10:50:55.483Z,80.35
2023-02-26T10:53:24.208Z,80.85
2023-02-26T10:56:08.043Z,81.35
2023-02-26T10:58:36.041Z,80.50
2023-02-26T11:01:07.272Z,80.82
2023-02-26T11:03:37.905Z,80.35
2023-02-26T11:06:06.763Z,79.38
2023-02-26T11:08:34.593Z,79.85
2023-02-26T11:11:04.166Z,80.53
2023-02-26T11:13:33.580Z,79.60
2023-02-26T11:16:03.258Z,79.64
2023-02-26T11:18:47.018Z,77.92
2023-02-26T11:21:27.009Z,79.06
2023-02-26T11:23:58.441Z,78.79
2023-02-26T11:26:27.226Z,79.39
2023-02-26T11:28:55.690Z,78.75
2023-02-26T11:31:25.262Z,78.19
2023-02-26T11:33:58.632Z,77.69
2023-02-26T11:36:28.615Z,78.01
2023-02-26T11:38:58.548Z,77.61
2023-02-26T11:41:28.313Z,78.32
2023-02-26T11:43:59.172Z,78.81
2023-02-26T11:46:27.218Z,79.33
2023-02-26T11:48:57.794Z,78.77
2023-02-26T11:51:27.255Z,78.55
2023-02-26T11:53:56.533Z,78.44
2023-02-26T11:56:32.023Z,79.63
2023-02-26T11:59:02.284Z,79.27
2023-02-26T12:01:30.038Z,79.07
2023-02-26T12:03:59.045Z,78.25
2023-02-26T12:06:27.114Z,77.03
2023-02-26T12:08:55.256Z,77.84
2023-02-26T12:11:23.631Z,76.97
2023-02-26T12:13:54.271Z,75.38
2023-02-26T12:16:37.933Z,76.72
2023-02-26T12:19:05.732Z,74.07
2023-02-26T12:21:49.424Z,76.09
2023-02-26T12:24:23.064Z,77.56
2023-02-26T12:26:59.620Z,77.43
2023-02-26T12:29:27.563Z,76.79
2023-02-26T12:32:11.321Z,75.23
2023-02-26T12:34:44.997Z,73.42
2023-02-26T12:37:29.489Z,74.90
2023-02-26T12:39:57.850Z,74.09
2023-02-26T12:42:32.616Z,73.91
2023-02-26T12:45:16.540Z,72.14
2023-02-26T12:48:01.315Z,72.86
2023-02-26T12:50:34.983Z,72.90
2023-02-26T12:53:26.204Z,73.17
2023-02-26T12:56:09.852Z,73.36
2023-02-26T12:58:52.607Z,73.54
2023-02-26T13:01:28.768Z,73.59
2023-02-26T13:04:02.727Z,73.75
2023-02-26T13:06:33.522Z,75.14
2023-02-26T13:09:10.078Z,72.46
2023-02-26T13:11:53.793Z,72.18
2023-02-26T13:14:21.812Z,70.75
2023-02-26T13:16:56.698Z,70.76
2023-02-26T13:19:39.540Z,72.85
2023-02-26T13:22:14.256Z,72.13
2023-02-26T13:24:45.299Z,72.23
2023-02-26T13:27:14.856Z,73.04
2023-02-26T13:29:52.426Z,73.40
2023-02-26T13:32:23.830Z,72.28
2023-02-26T13:34:51.721Z,69.91
2023-02-26T13:37:24.277Z,70.59
2023-02-26T13:40:01.379Z,72.02
2023-02-26T13:42:45.308Z,72.72
2023-02-26T13:45:19.298Z,71.31
2023-02-26T13:47:52.883Z,71.56
2023-02-26T13:50:36.787Z,71.90
2023-02-26T13:53:24.722Z,71.61
2023-02-26T13:55:53.456Z,71.24
2023-02-26T13:58:24.015Z,71.67
2023-02-26T14:01:00.300Z,70.56
2023-02-26T14:03:28.081Z,71.30
2023-02-26T14:06:07.376Z,70.78
2023-02-26T14:08:41.094Z,70.87
2023-02-26T14:11:25.148Z,70.58
2023-02-26T14:14:09.062Z,71.72
2023-02-26T14:16:39.685Z,71.41
2023-02-26T14:19:23.976Z,71.59
2023-02-26T14:21:51.826Z,71.89
2023-02-26T14:24:46.215Z,72.22
2023-02-26T14:27:14.006Z,72.20
2023-02-26T14:29:58.252Z,70.39
2023-02-26T14:32:33.458Z,70.51
2023-02-26T14:35:06.340Z,70.77
2023-02-26T14:37:37.324Z,70.08
2023-02-26T14:40:21.068Z,69.77
2023-02-26T14:42:51.916Z,71.45
2023-02-26T14:45:35.657Z,71.57
2023-02-26T14:48:07.835Z,71.83
2023-02-26T14:50:38.720Z,70.83
2023-02-26T14:53:23.366Z,70.89
2023-02-26T14:56:01.960Z,71.40
2023-02-26T14:58:29.910Z,71.87
2023-02-26T15:01:09.360Z,72.00
2023-02-26T15:03:51.268Z,71.97
2023-02-26T15:06:34.876Z,72.55
2023-02-26T15:09:08.862Z,72.80
2023-02-26T15:11:36.558Z,72.31
2023-02-26T15:14:07.160Z,72.43
2023-02-26T15:16:50.811Z,73.50
2023-02-26T15:19:34.482Z,73.38
2023-02-26T15:22:05.420Z,73.17
2023-02-26T15:24:33.275Z,73.61
2023-02-26T15:27:02.877Z,73.77
2023-02-26T15:29:32.689Z,73.97
2023-02-26T15:32:05.357Z,74.01
2023-02-26T15:34:33.962Z,74.41
2023-02-26T15:37:02.525Z,73.86
2023-02-26T15:39:30.303Z,74.26
2023-02-26T15:41:58.031Z,73.83
2023-02-26T15:44:28.480Z,74.08
2023-02-26T15:46:58.401Z,73.71
2023-02-26T15:49:33.216Z,73.99
2023-02-26T15:52:02.011Z,74.25
2023-02-26T15:54:41.467Z,74.36
2023-02-26T15:57:10.351Z,74.64
2023-02-26T15:59:43.140Z,74.71
2023-02-26T16:02:15.716Z,74.46
2023-02-26T16:04:43.979Z,74.83
2023-02-26T16:07:12.582Z,74.23
2023-02-26T16:09:42.410Z,74.39
2023-02-26T16:12:18.258Z,74.39
2023-02-26T16:14:57.127Z,74.87
2023-02-26T16:17:26.612Z,75.29
2023-02-26T16:19:55.979Z,75.74
2023-02-26T16:22:35.627Z,76.14
2023-02-26T16:25:08.097Z,76.29
2023-02-26T16:27:36.071Z,76.49
2023-02-26T16:30:04.987Z,76.82
2023-02-26T16:32:34.547Z,76.86
2023-02-26T16:35:19.752Z,77.34
2023-02-26T16:37:52.318Z,77.42
2023-02-26T16:40:25.733Z,77.54
2023-02-26T16:43:13.751Z,77.72
2023-02-26T16:45:49.052Z,77.67
2023-02-26T16:48:32.795Z,77.49
2023-02-26T16:51:02.606Z,77.94
2023-02-26T16:53:40.244Z,78.36
2023-02-26T16:56:09.661Z,77.96
2023-02-26T16:58:37.383Z,77.62
2023-02-26T17:01:08.448Z,77.27
2023-02-26T17:03:38.495Z,77.43
2023-02-26T17:06:09.337Z,77.21
2023-02-26T17:08:52.949Z,77.06
2023-02-26T17:11:26.745Z,77.22
2023-02-26T17:14:03.717Z,76.80
2023-02-26T17:16:31.511Z,76.99
2023-02-26T17:19:00.662Z,76.68
2023-02-26T17:21:28.906Z,77.10
2023-02-26T17:23:57.164Z,77.31
2023-02-26T17:26:24.971Z,77.21
2023-02-26T17:28:52.899Z,77.15
2023-02-26T17:31:20.980Z,77.33
2023-02-26T17:33:53.025Z,77.62
2023-02-26T17:36:21.296Z,77.57
2023-02-26T17:38:50.437Z,77.59
2023-02-26T17:41:18.447Z,77.72
2023-02-26T17:43:46.278Z,77.76
2023-02-26T17:46:14.560Z,78.86
2023-02-26T17:48:42.565Z,79.50
2023-02-26T17:51:13.764Z,79.83
2023-02-26T17:53:42.345Z,80.47
2023-02-26T17:56:10.918Z,80.10
2023-02-26T17:58:39.389Z,80.52
2023-02-26T18:01:08.417Z,80.64
2023-02-26T18:03:36.300Z,80.79
2023-02-26T18:06:04.383Z,80.37
2023-02-26T18:08:34.460Z,80.41
2023-02-26T18:11:03.134Z,80.59
2023-02-26T18:13:31.451Z,80.45
2023-02-26T18:16:02.306Z,80.45
2023-02-26T18:18:30.632Z,80.52
2023-02-26T18:20:58.417Z,80.69
2023-02-26T18:23:26.388Z,80.67
2023-02-26T18:25:54.655Z,80.90
2023-02-26T18:28:23.823Z,80.70
2023-02-26T18:30:52.717Z,80.80
2023-02-26T18:33:21.143Z,81.50
2023-02-26T18:35:52.973Z,81.41
2023-02-26T18:38:22.486Z,81.71
2023-02-26T18:40:50.463Z,82.08
2023-02-26T18:43:18.221Z,81.78
2023-02-26T18:45:47.204Z,82.08
2023-02-26T18:48:16.721Z,82.03
2023-02-26T18:50:45.112Z,81.92
2023-02-26T18:53:13.366Z,82.32
2023-02-26T18:55:41.247Z,82.26
2023-02-26T18:58:09.038Z,82.34
2023-02-26T19:00:36.893Z,82.79
2023-02-26T19:03:04.640Z,82.90
2023-02-26T19:05:33.231Z,82.67
2023-02-26T19:08:01.019Z,82.45
2023-02-26T19:10:30.001Z,82.58
2023-02-26T19:12:58.664Z,82.62
2023-02-26T19:15:26.855Z,82.46
2023-02-26T19:17:54.707Z,82.32
2023-02-26T19:20:22.451Z,82.16
2023-02-26T19:22:50.359Z,82.50
2023-02-26T19:25:23.662Z,82.67
2023-02-26T19:27:53.253Z,82.98
2023-02-26T19:30:22.012Z,83.28
2023-02-26T19:32:50.355Z,83.43
2023-02-26T19:35:19.384Z,83.41
2023-02-26T19:37:47.665Z,83.91
2023-02-26T19:40:16.687Z,84.56
2023-02-26T19:42:44.402Z,85.71
2023-02-26T19:45:13.306Z,86.05
2023-02-26T19:47:41.254Z,85.48
2023-02-26T19:50:10.221Z,85.81
2023-02-26T19:52:38.027Z,86.11
2023-02-26T19:55:07.092Z,86.45
2023-02-26T19:57:34.933Z,86.70
2023-02-26T20:00:03.846Z,86.82
2023-02-26T20:02:40.740Z,87.02
2023-02-26T20:05:11.520Z,86.65
2023-02-26T20:07:39.421Z,86.85
2023-02-26T20:10:07.626Z,87.08
2023-02-26T20:12:36.184Z,86.77
2023-02-26T20:15:04.935Z,87.26
2023-02-26T20:17:33.891Z,87.41
2023-02-26T20:20:01.655Z,86.78
2023-02-26T20:22:31.326Z,87.55
2023-02-26T20:24:59.810Z,87.92
2023-02-26T20:27:27.639Z,87.69
2023-02-26T20:29:55.672Z,87.75
2023-02-26T20:32:24.098Z,87.71
2023-02-26T20:34:51.951Z,87.89
2023-02-26T20:37:19.700Z,87.57
2023-02-26T20:39:47.489Z,87.09
2023-02-26T20:42:16.868Z,87.42
2023-02-26T20:44:44.592Z,87.27
2023-02-26T20:47:12.327Z,87.19
2023-02-26T20:49:40.062Z,87.66
2023-02-26T20:52:07.810Z,87.72
2023-02-26T20:54:35.576Z,87.88
2023-02-26T20:57:03.391Z,87.97
2023-02-26T20:59:31.206Z,88.00
2023-02-26T21:01:59.010Z,88.09
2023-02-26T21:04:28.908Z,88.03
2023-02-26T21:07:12.447Z,87.92
2023-02-26T21:09:40.518Z,88.00
2023-02-26T21:12:08.279Z,87.74
2023-02-26T21:14:36.333Z,87.78
2023-02-26T21:17:04.413Z,88.33
2023-02-26T21:19:32.161Z,88.43
2023-02-26T21:22:02.756Z,89.10
2023-02-26T21:24:30.678Z,89.25
2023-02-26T21:26:58.538Z,89.11
2023-02-26T21:29:26.311Z,89.64
2023-02-26T21:31:56.927Z,89.82
2023-02-26T21:34:34.239Z,89.54
2023-02-26T21:37:03.074Z,89.50
2023-02-26T21:39:31.333Z,90.14
2023-02-26T21:42:00.287Z,90.01
2023-02-26T21:44:27.991Z,90.39
2023-02-26T21:46:57.462Z,90.90
2023-02-26T21:49:31.818Z,91.57
2023-02-26T21:52:00.672Z,92.19
2023-02-26T21:54:28.719Z,92.49
2023-02-26T21:56:56.968Z,92.33
2023-02-26T21:59:25.015Z,92.16
2023-02-26T22:01:53.271Z,92.09
2023-02-26T22:04:21.738Z,92.37
2023-02-26T22:06:49.625Z,92.36
2023-02-26T22:09:21.258Z,93.08
2023-02-26T22:11:49.162Z,93.18
2023-02-26T22:14:16.991Z,92.97
2023-02-26T22:16:44.967Z,92.86
2023-02-26T22:19:12.851Z,92.56
2023-02-26T22:21:40.619Z,92.45
2023-02-26T22:24:08.995Z,92.40
2023-02-26T22:26:36.950Z,92.56
2023-02-26T22:29:04.760Z,92.78
2023-02-26T22:31:32.760Z,92.94
2023-02-26T22:34:00.872Z,93.54
2023-02-26T22:36:31.085Z,93.25
2023-02-26T22:38:58.889Z,93.04
2023-02-26T22:41:26.609Z,93.15
2023-02-26T22:43:54.937Z,93.70
2023-02-26T22:46:25.298Z,93.16
2023-02-26T22:48:53.726Z,94.06
2023-02-26T22:51:21.853Z,94.22
2023-02-26T22:53:49.829Z,93.36
2023-02-26T22:56:17.691Z,93.50
2023-02-26T22:58:45.412Z,94.45
2023-02-26T23:01:13.279Z,93.47
2023-02-26T23:03:41.564Z,93.61
2023-02-26T23:06:09.403Z,93.87
2023-02-26T23:08:37.257Z,94.45
2023-02-26T23:11:05.787Z,94.09
2023-02-26T23:13:35.495Z,93.73
2023-02-26T23:16:05.400Z,94.24
2023-02-26T23:18:34.171Z,93.66
2023-02-26T23:21:02.200Z,93.43
2023-02-26T23:23:29.980Z,93.56
2023-02-26T23:25:57.764Z,93.06
2023-02-26T23:28:25.792Z,93.68
2023-02-26T23:30:53.778Z,93.76
2023-02-26T23:33:21.916Z,94.37
2023-02-26T23:35:49.664Z,94.40
2023-02-26T23:38:17.836Z,94.38
2023-02-26T23:40:45.727Z,95.06
2023-02-26T23:43:13.715Z,95.53
2023-02-26T23:45:41.534Z,95.84
2023-02-26T23:48:09.502Z,96.18
2023-02-26T23:50:37.320Z,95.93
2023-02-26T23:53:05.055Z,95.75
2023-02-26T23:55:32.781Z,96.09
2023-02-26T23:58:01.068Z,95.85
